createdAt,value
2019-02-11T00:02:17.039Z,52.9
2019-02-11T00:07:22.818Z,52.9
2019-02-11T00:12:28.362Z,52.9
2019-02-11T00:17:33.484Z,52.8
2019-02-11T00:22:39.061Z,52.8
2019-02-11T00:27:44.150Z,52.8
2019-02-11T00:32:50.494Z,52.8
2019-02-11T00:37:55.662Z,52.8
2019-02-11T00:43:01.005Z,52.8
2019-02-11T00:48:09.031Z,52.8
2019-02-11T00:53:14.804Z,52.8
2019-02-11T00:58:19.180Z,52.7
2019-02-11T01:03:24.885Z,52.8
2019-02-11T01:08:30.092Z,52.8
2019-02-11T01:13:35.776Z,52.9
2019-02-11T01:18:39.926Z,52.9
2019-02-11T01:23:45.067Z,52.9
2019-02-11T01:28:50.653Z,52.9
2019-02-11T01:33:55.826Z,52.8
2019-02-11T01:39:01.553Z,52.8
2019-02-11T01:44:06.641Z,52.9
2019-02-11T01:49:11.931Z,53
2019-02-11T01:54:17.788Z,53
2019-02-11T01:59:23.404Z,52.9
2019-02-11T02:04:28.946Z,52.9
2019-02-11T02:09:34.036Z,53
2019-02-11T02:14:39.680Z,52.8
2019-02-11T02:19:45.818Z,52.8
2019-02-11T02:24:51.297Z,52.9
2019-02-11T02:29:56.327Z,53
2019-02-11T02:35:01.279Z,52.9
2019-02-11T02:40:06.555Z,53.1
2019-02-11T02:45:11.776Z,53.1
2019-02-11T02:50:17.032Z,53.1
2019-02-11T02:55:22.076Z,53.1
2019-02-11T03:00:27.428Z,53.2
2019-02-11T03:05:33.287Z,53.2
2019-02-11T03:10:39.277Z,53.1
2019-02-11T03:15:44.451Z,53.2
2019-02-11T03:20:50.308Z,53.2
2019-02-11T03:25:55.514Z,53.3
2019-02-11T03:31:00.857Z,53.2
2019-02-11T03:36:06.233Z,53.2
2019-02-11T03:41:11.558Z,53.3
2019-02-11T03:46:16.648Z,53.3
2019-02-11T03:51:22.315Z,53.3
2019-02-11T03:56:27.504Z,53.3
2019-02-11T04:01:33.961Z,53.4
2019-02-11T04:06:39.856Z,53.4
2019-02-11T04:11:45.832Z,53.4
2019-02-11T04:16:51.709Z,53.3
2019-02-11T04:21:57.546Z,53.4
2019-02-11T04:27:03.531Z,53.4
2019-02-11T04:32:09.294Z,53.4
2019-02-11T04:37:14.399Z,53.4
2019-02-11T04:42:19.484Z,53.4
2019-02-11T04:47:25.123Z,53.2
2019-02-11T04:52:28.872Z,52.9
2019-02-11T04:57:34.186Z,52.8
2019-02-11T05:02:39.928Z,52.7
2019-02-11T05:07:45.767Z,52.4
2019-02-11T05:12:51.164Z,52.4
2019-02-11T05:17:56.695Z,52.4
2019-02-11T05:23:02.362Z,52.3
2019-02-11T05:28:07.982Z,52.1
2019-02-11T05:33:14.428Z,51.7
2019-02-11T05:39:25.685Z,51
2019-02-11T05:44:31.493Z,51.6
2019-02-11T05:49:36.480Z,51.8
2019-02-11T05:54:41.594Z,52
2019-02-11T05:59:46.645Z,51.9
2019-02-11T06:04:51.843Z,52
2019-02-11T06:09:56.814Z,51.7
2019-02-11T06:15:07.153Z,51.5
2019-02-11T06:20:12.137Z,51.5
2019-02-11T06:25:17.656Z,51.5
2019-02-11T06:30:23.246Z,51.6
2019-02-11T06:35:28.830Z,51.6
2019-02-11T06:40:34.312Z,51.6
2019-02-11T06:45:39.521Z,51.6
2019-02-11T06:50:45.360Z,51.6
2019-02-11T06:55:50.421Z,51.6
2019-02-11T07:00:55.652Z,51.6
2019-02-11T07:06:00.627Z,51.2
2019-02-11T07:11:05.690Z,51
2019-02-11T07:16:11.512Z,51
2019-02-11T07:21:16.963Z,51.1
2019-02-11T07:26:22.755Z,51.2
2019-02-11T07:31:28.074Z,51.7
2019-02-11T07:36:33.636Z,51.3
2019-02-11T07:41:39.484Z,51.5
2019-02-11T07:46:45.240Z,51.4
2019-02-11T07:51:50.675Z,51.6
2019-02-11T07:56:56.297Z,51.7
2019-02-11T08:07:05.188Z,51.3
2019-02-11T08:12:10.583Z,51.1
2019-02-11T08:17:15.619Z,51.1
2019-02-11T08:27:25.957Z,50.9
2019-02-11T08:32:31.597Z,50.6
2019-02-11T08:37:36.894Z,50.7
2019-02-11T08:42:42.088Z,50.8
2019-02-11T08:47:47.291Z,50.9
2019-02-11T08:52:52.851Z,50.9
2019-02-11T08:57:58.658Z,50.8
2019-02-11T09:03:02.830Z,51
2019-02-11T09:08:08.161Z,51
2019-02-11T09:13:13.321Z,51.1
2019-02-11T09:18:20.765Z,51.2
2019-02-11T09:23:27.307Z,51.2
2019-02-11T09:28:33.273Z,51.2
2019-02-11T09:33:38.772Z,51.2
2019-02-11T09:38:44.110Z,51.3
2019-02-11T09:43:49.071Z,51.4
2019-02-11T09:48:54.162Z,51.4
2019-02-11T09:53:59.493Z,51.5
2019-02-11T09:59:03.798Z,51.5
2019-02-11T10:04:08.990Z,51.6
2019-02-11T10:09:14.177Z,51.7
2019-02-11T10:14:19.996Z,51.6
2019-02-11T10:19:25.995Z,51.6
2019-02-11T10:24:31.327Z,51.7
2019-02-11T10:29:37.319Z,51.7
2019-02-11T10:34:42.905Z,51.6
2019-02-11T10:39:48.352Z,51.6
2019-02-11T10:44:53.842Z,51.6
2019-02-11T10:49:59.570Z,51.6
2019-02-11T10:55:04.881Z,51.6
2019-02-11T11:00:10.555Z,51.5
2019-02-11T11:05:16.376Z,51.6
2019-02-11T11:10:21.749Z,51.6
2019-02-11T11:15:28.908Z,51.5
2019-02-11T11:20:34.329Z,51.4
2019-02-11T11:25:39.371Z,51.3
2019-02-11T11:30:45.661Z,51.1
2019-02-11T11:35:51.232Z,51.2
2019-02-11T11:46:01.274Z,51.3
2019-02-11T11:51:06.638Z,51.2
2019-02-11T11:56:10.994Z,51.2
2019-02-11T12:01:22.111Z,51.3
2019-02-11T12:06:17.197Z,51.4
2019-02-11T12:11:22.727Z,51.2
2019-02-11T12:16:28.823Z,51.2
2019-02-11T12:21:34.044Z,51.2
2019-02-11T12:26:39.523Z,51
2019-02-11T12:31:44.936Z,50.9
2019-02-11T12:36:51.062Z,50.6
2019-02-11T12:41:56.740Z,50.4
2019-02-11T12:52:11.140Z,50.6
2019-02-11T12:57:16.666Z,50.6
2019-02-11T13:02:22.494Z,50.5
2019-02-11T13:07:28.166Z,50.3
2019-02-11T13:12:34.447Z,50.3
2019-02-11T13:17:40.722Z,50.3
2019-02-11T13:22:46.899Z,50.5
2019-02-11T13:27:52.104Z,50.5
2019-02-11T13:32:58.185Z,50.7
2019-02-11T13:38:03.904Z,50.7
2019-02-11T13:43:09.219Z,50.7
2019-02-11T13:48:15.038Z,50.6
2019-02-11T13:53:20.853Z,50.6
2019-02-11T13:58:26.125Z,50.4
2019-02-11T14:03:31.771Z,50.2
2019-02-11T14:08:37.414Z,50.3
2019-02-11T14:14:03.877Z,50.3
2019-02-11T14:18:49.378Z,51.1
2019-02-11T14:23:55.340Z,50.6
2019-02-11T14:29:00.988Z,50.7
2019-02-11T14:34:11.123Z,51.2
2019-02-11T14:39:06.435Z,50.6
2019-02-11T14:44:16.152Z,50.6
2019-02-11T14:49:21.140Z,50.6
2019-02-11T14:54:26.893Z,50.5
2019-02-11T14:59:32.004Z,50.4
2019-02-11T15:04:37.081Z,50.4
2019-02-11T15:09:42.596Z,50.2
2019-02-11T15:14:48.025Z,50.2
2019-02-11T15:19:53.208Z,50.3
2019-02-11T15:24:58.762Z,50.2
2019-02-11T15:30:03.806Z,50.2
2019-02-11T15:35:11.211Z,49.9
2019-02-11T15:40:16.227Z,50
2019-02-11T15:45:22.364Z,50.5
2019-02-11T15:50:26.485Z,50.9
2019-02-11T15:55:30.775Z,51.3
2019-02-11T16:00:31.611Z,51.1
2019-02-11T16:05:37.130Z,51.2
2019-02-11T16:10:42.668Z,51.4
2019-02-11T16:15:47.844Z,51.1
2019-02-11T16:20:52.820Z,51.3
2019-02-11T16:25:57.855Z,51.2
2019-02-11T16:31:03.919Z,51.9
2019-02-11T16:36:10.127Z,52
2019-02-11T16:41:15.256Z,52.3
2019-02-11T16:46:22.206Z,51.5
2019-02-11T16:51:27.273Z,51.5
2019-02-11T16:56:31.475Z,51.5
2019-02-11T17:01:36.634Z,51.8
2019-02-11T17:06:42.425Z,51.2
2019-02-11T17:11:47.665Z,51.1
2019-02-11T17:16:53.416Z,51.2
2019-02-11T17:21:58.712Z,51.3
2019-02-11T17:27:04.663Z,51.4
2019-02-11T17:32:11.012Z,51.5
2019-02-11T17:37:16.780Z,51.5
2019-02-11T17:42:22.414Z,51.6
2019-02-11T17:47:27.656Z,51.8
2019-02-11T17:52:32.768Z,52.1
2019-02-11T17:57:38.073Z,52
2019-02-11T18:02:43.880Z,52.2
2019-02-11T18:07:49.639Z,52.4
2019-02-11T18:12:55.941Z,52.2
2019-02-11T18:18:03.516Z,52.5
2019-02-11T18:23:08.867Z,52.7
2019-02-11T18:33:19.224Z,52.6
2019-02-11T18:43:28.793Z,52.6
2019-02-11T18:48:34.261Z,52.6
2019-02-11T18:53:39.891Z,52.6
2019-02-11T18:58:45.494Z,52.7
2019-02-11T19:03:50.998Z,38.6
2019-02-11T19:08:56.076Z,41.1
2019-02-11T19:14:01.417Z,43.3
2019-02-11T19:19:07.609Z,43.5
2019-02-11T19:24:13.053Z,43.8
2019-02-11T19:29:19.007Z,44
2019-02-11T19:34:24.097Z,44.2
2019-02-11T19:39:30.222Z,45.4
2019-02-11T19:44:35.578Z,46.2
2019-02-11T19:49:40.785Z,47
2019-02-11T19:54:46.645Z,46.5
2019-02-11T19:59:50.598Z,46.5
2019-02-11T20:04:56.349Z,46.8
2019-02-11T20:10:02.353Z,46.9
2019-02-11T20:15:07.578Z,47.1
2019-02-11T20:20:13.247Z,47.2
2019-02-11T20:25:18.931Z,47.3
2019-02-11T20:30:26.687Z,47.5
2019-02-11T20:35:31.598Z,47.4
2019-02-11T20:40:36.821Z,47.6
2019-02-11T20:45:42.678Z,47.6
2019-02-11T20:50:48.359Z,47.7
2019-02-11T20:55:54.009Z,47.8
2019-02-11T21:00:59.390Z,47.9
2019-02-11T21:11:08.738Z,48.4
2019-02-11T21:16:13.961Z,48.2
2019-02-11T21:21:19.917Z,48.1
2019-02-11T21:26:25.559Z,48.1
2019-02-11T21:31:30.764Z,48.1
2019-02-11T21:36:34.469Z,48
2019-02-11T21:41:40.165Z,47.9
2019-02-11T21:46:45.680Z,48.1
2019-02-11T21:51:51.173Z,48.7
2019-02-11T21:56:56.521Z,48.9
2019-02-11T22:02:02.189Z,48.6
2019-02-11T22:07:07.855Z,49.1
2019-02-11T22:12:13.421Z,49.5
2019-02-11T22:17:18.419Z,49.7
2019-02-11T22:22:24.562Z,50
2019-02-11T22:27:30.168Z,50.1
2019-02-11T22:32:36.215Z,50.4
2019-02-11T22:37:42.928Z,50.3
2019-02-11T22:42:48.378Z,50.3
2019-02-11T22:47:52.307Z,50.4
2019-02-11T22:52:57.966Z,50.4
2019-02-11T22:58:03.534Z,50.7
2019-02-11T23:03:09.664Z,50.8
2019-02-11T23:08:15.482Z,50.7
2019-02-11T23:13:20.933Z,50.7
2019-02-11T23:18:26.656Z,50.7
2019-02-11T23:23:32.581Z,50.7
2019-02-11T23:28:38.098Z,50.7
2019-02-11T23:33:44.062Z,50.8
2019-02-11T23:38:49.274Z,50.8
2019-02-11T23:43:55.060Z,50.8
2019-02-11T23:49:00.467Z,50.8
2019-02-11T23:54:06.750Z,50.9
2019-02-11T23:59:12.749Z,50.9
